Time;durP1;ratioP1;P1;durP2;ratioP2;P2;SDS_P1;SDS_P2;PMS_P1;PMS_P2;Temp;Humidity;BMP_temperature;BMP_pressure;BME280_temperature;BME280_humidity;BME280_pressure;Samples;Min_cycle;Max_cycle;Signal;HPM_P1;HPM_P2
2022/12/01 00:01:12;;;;;;;91.43;42.67;;;5.50;99.90;;;;;;5089753;28;20082;-71
2022/12/01 00:03:38;;;;;;;96.03;43.28;;;5.50;99.90;;;;;;5068148;28;20051;-71
2022/12/01 00:06:10;;;;;;;97.50;43.50;;;5.50;99.90;;;;;;5092675;28;20032;-70
2022/12/01 00:08:35;;;;;;;97.03;45.20;;;5.50;99.90;;;;;;5083492;28;20399;-69
2022/12/01 00:11:13;;;;;;;97.93;43.72;;;5.50;99.90;;;;;;5095330;28;20043;-72
2022/12/01 00:13:39;;;;;;;102.10;45.47;;;5.50;99.90;;;;;;5075342;28;20047;-70
2022/12/01 00:16:12;;;;;;;104.55;46.05;;;5.50;99.90;;;;;;5089021;28;20433;-71
2022/12/01 00:18:38;;;;;;;101.45;45.53;;;5.40;99.90;;;;;;5095282;28;20113;-71
2022/12/01 00:21:04;;;;;;;103.50;45.90;;;5.50;99.90;;;;;;5055473;28;20476;-71
2022/12/01 00:23:30;;;;;;;109.30;47.70;;;5.50;99.90;;;;;;5059244;28;20511;-70
2022/12/01 00:26:04;;;;;;;101.53;46.30;;;5.50;99.90;;;;;;5058235;28;20056;-71
2022/12/01 00:28:30;;;;;;;104.35;46.40;;;5.50;99.90;;;;;;5089463;28;20472;-71
2022/12/01 00:30:56;;;;;;;112.03;47.35;;;5.50;99.90;;;;;;5057877;28;20059;-71
2022/12/01 00:33:21;;;;;;;103.40;46.70;;;5.80;99.90;;;;;;5072206;28;20040;-70
2022/12/01 00:35:47;;;;;;;113.63;47.78;;;5.50;99.90;;;;;;5093578;28;20052;-70
2022/12/01 00:38:13;;;;;;;104.78;46.15;;;5.50;99.90;;;;;;5095233;28;20062;-70
2022/12/01 00:40:38;;;;;;;115.35;48.70;;;5.60;99.90;;;;;;5074261;28;20098;-71
2022/12/01 00:43:04;;;;;;;113.95;48.20;;;5.50;99.90;;;;;;5095089;28;20047;-70
2022/12/01 00:45:30;;;;;;;115.50;48.08;;;5.50;99.90;;;;;;5095021;28;20052;-70
2022/12/01 00:47:55;;;;;;;114.90;47.85;;;5.50;99.90;;;;;;5095310;28;20031;-71
2022/12/01 00:50:21;;;;;;;134.85;51.33;;;5.50;99.90;;;;;;5077498;28;20106;-71
2022/12/01 00:52:47;;;;;;;127.10;49.95;;;5.50;99.90;;;;;;5082700;28;20078;-70
2022/12/01 00:55:12;;;;;;;138.25;53.10;;;5.50;99.90;;;;;;5064107;28;20535;-70
2022/12/01 00:57:38;;;;;;;134.32;52.05;;;5.50;99.90;;;;;;5074418;28;20109;-70
2022/12/01 01:00:04;;;;;;;122.35;48.28;;;5.50;99.90;;;;;;5072241;28;20387;-71
2022/12/01 01:02:30;;;;;;;135.35;52.25;;;5.50;99.90;;;;;;5089395;28;20050;-70
2022/12/01 01:04:56;;;;;;;123.63;49.92;;;5.80;99.90;;;;;;5083516;28;20031;-71
2022/12/01 01:07:22;;;;;;;125.38;50.65;;;5.50;99.90;;;;;;5089406;28;20048;-71
2022/12/01 01:09:47;;;;;;;129.88;50.08;;;5.50;99.90;;;;;;5081394;28;20479;-70
2022/12/01 01:12:13;;;;;;;138.98;52.13;;;5.50;99.90;;;;;;5088423;28;20094;-71
2022/12/01 01:14:39;;;;;;;133.35;51.20;;;5.50;99.90;;;;;;5078135;28;20094;-71
2022/12/01 01:17:05;;;;;;;131.13;51.53;;;5.50;99.90;;;;;;5082545;28;20036;-71
2022/12/01 01:19:30;;;;;;;126.45;49.15;;;5.50;99.90;;;;;;5072070;28;20051;-71
2022/12/01 01:21:56;;;;;;;112.72;47.17;;;5.50;99.90;;;;;;5091314;28;20044;-71
2022/12/01 01:24:22;;;;;;;135.88;52.08;;;6.00;99.90;;;;;;5086627;28;20078;-70
2022/12/01 01:26:47;;;;;;;132.88;50.67;;;5.50;99.90;;;;;;5091615;28;20129;-71
2022/12/01 01:29:13;;;;;;;130.43;51.03;;;5.50;99.90;;;;;;5061005;28;20051;-70
2022/12/01 01:31:39;;;;;;;139.25;52.40;;;5.50;99.90;;;;;;5060748;28;20044;-71
2022/12/01 01:34:05;;;;;;;126.30;50.50;;;5.50;99.90;;;;;;5078101;28;20499;-70
2022/12/01 01:36:30;;;;;;;127.45;52.05;;;5.50;99.90;;;;;;5060298;28;20037;-70
2022/12/01 01:38:57;;;;;;;140.68;53.13;;;5.50;99.90;;;;;;5074548;28;20094;-71
2022/12/01 01:41:23;;;;;;;142.85;54.05;;;5.50;99.90;;;;;;5077379;28;20050;-71
2022/12/01 01:43:52;;;;;;;145.88;53.95;;;5.50;99.90;;;;;;5077375;28;20096;-71
2022/12/01 01:46:29;;;;;;;138.63;53.65;;;5.50;99.90;;;;;;5089340;28;20051;-71
2022/12/01 01:49:08;;;;;;;127.97;51.47;;;5.40;99.90;;;;;;5077346;28;20044;-71
2022/12/01 01:51:39;;;;;;;142.93;53.60;;;5.50;99.90;;;;;;5096498;28;20055;-71
2022/12/01 01:54:09;;;;;;;138.90;51.53;;;5.50;99.90;;;;;;5097519;28;20484;-71
2022/12/01 01:56:36;;;;;;;144.35;53.70;;;5.60;99.90;;;;;;5097020;28;20173;-71
2022/12/01 01:59:03;;;;;;;143.52;52.70;;;5.50;99.90;;;;;;5113990;28;20075;-71
2022/12/01 02:01:30;;;;;;;144.70;55.50;;;5.40;99.90;;;;;;5080532;28;20052;-70
2022/12/01 02:03:56;;;;;;;145.93;55.15;;;5.50;99.90;;;;;;5080725;28;20056;-70
2022/12/01 02:06:23;;;;;;;149.45;54.20;;;5.50;99.90;;;;;;5098783;28;20079;-71
2022/12/01 02:08:49;;;;;;;137.20;53.60;;;5.50;99.90;;;;;;5082552;28;20052;-71
2022/12/01 02:11:31;;;;;;;153.45;54.63;;;5.50;99.90;;;;;;5090767;28;20040;-71
2022/12/01 02:14:24;;;;;;;143.55;53.85;;;5.50;99.90;;;;;;5076969;28;20047;-71
2022/12/01 02:16:55;;;;;;;140.13;52.63;;;6.40;99.90;;;;;;5097079;28;20047;-71
2022/12/01 02:19:36;;;;;;;130.40;53.28;;;5.50;99.90;;;;;;5079379;28;20532;-71
2022/12/01 02:22:23;;;;;;;138.15;53.25;;;5.50;99.90;;;;;;5075926;28;20056;-71
2022/12/01 02:25:10;;;;;;;133.57;53.53;;;5.50;99.90;;;;;;5093696;28;20052;-71
2022/12/01 02:27:59;;;;;;;137.40;53.85;;;5.40;99.90;;;;;;5063330;28;20051;-71
2022/12/01 02:31:07;;;;;;;136.93;53.80;;;5.50;99.90;;;;;;5086464;28;20051;-70
2022/12/01 02:33:45;;;;;;;132.32;53.30;;;5.40;99.90;;;;;;5077858;28;20129;-71
2022/12/01 02:36:28;;;;;;;135.70;53.00;;;5.40;99.90;;;;;;5071175;28;20059;-71
2022/12/01 02:39:24;;;;;;;131.38;52.47;;;5.40;99.90;;;;;;5069916;28;20062;-71
2022/12/01 02:42:00;;;;;;;130.18;53.47;;;5.40;99.90;;;;;;5076330;28;20101;-71
2022/12/01 02:44:40;;;;;;;134.80;54.10;;;5.40;99.90;;;;;;5089675;28;20051;-71
2022/12/01 02:47:17;;;;;;;128.95;53.90;;;5.40;99.90;;;;;;5107074;28;20039;-70
2022/12/01 02:49:48;;;;;;;129.77;55.10;;;5.40;99.90;;;;;;5096458;28;20047;-71
2022/12/01 02:52:14;;;;;;;121.03;54.25;;;5.40;99.90;;;;;;5095645;28;20391;-70
2022/12/01 02:54:43;;;;;;;128.95;53.47;;;5.40;99.90;;;;;;5083062;28;20077;-71
2022/12/01 02:57:13;;;;;;;120.38;54.30;;;5.40;99.90;;;;;;5078007;28;20047;-71
2022/12/01 02:59:41;;;;;;;123.22;53.08;;;5.40;99.90;;;;;;5088265;28;20065;-71
2022/12/01 03:02:23;;;;;;;125.32;53.72;;;5.40;99.90;;;;;;5079122;28;20050;-71
2022/12/01 03:05:17;;;;;;;118.70;52.27;;;5.40;99.90;;;;;;5096380;28;20136;-71
2022/12/01 03:07:49;;;;;;;119.60;52.92;;;5.40;99.90;;;;;;5079412;28;20131;-71
2022/12/01 03:10:31;;;;;;;120.38;52.20;;;5.40;99.90;;;;;;5083439;28;20492;-71
2022/12/01 03:13:06;;;;;;;;;;;5.40;99.90;;;;;;5073660;28;20058;-71
2022/12/01 03:15:53;;;;;;;113.80;51.60;;;5.40;99.90;;;;;;5081788;28;20369;-71
2022/12/01 03:18:25;;;;;;;114.80;52.45;;;5.40;99.90;;;;;;5095725;28;20054;-71
2022/12/01 03:21:00;;;;;;;108.60;51.33;;;5.40;99.90;;;;;;5078153;28;20490;-71
2022/12/01 03:23:30;;;;;;;118.93;53.08;;;5.40;99.90;;;;;;5071738;28;20055;-71
2022/12/01 03:25:58;;;;;;;116.93;53.47;;;5.40;99.90;;;;;;5089177;28;20055;-71
2022/12/01 03:28:32;;;;;;;119.72;53.58;;;5.40;99.90;;;;;;5058366;28;20135;-71
2022/12/01 03:31:04;;;;;;;115.57;52.70;;;5.40;99.90;;;;;;5085374;28;20058;-70
2022/12/01 03:33:37;;;;;;;119.15;53.85;;;5.30;99.90;;;;;;5089520;28;20086;-70
2022/12/01 03:36:17;;;;;;;118.28;53.88;;;5.40;99.90;;;;;;5070598;28;20051;-71
2022/12/01 03:38:47;;;;;;;118.35;53.92;;;5.30;99.90;;;;;;5065683;28;20139;-70
2022/12/01 03:41:20;;;;;;;114.18;53.75;;;5.30;99.90;;;;;;5078291;28;20090;-71
2022/12/01 03:43:54;;;;;;;116.53;53.60;;;5.40;99.90;;;;;;5077149;28;20048;-71
2022/12/01 03:46:59;;;;;;;118.00;55.05;;;5.30;99.90;;;;;;5075575;28;20051;-71
2022/12/01 03:49:25;;;;;;;111.70;53.78;;;5.30;99.90;;;;;;4968410;28;20108;-71
2022/12/01 03:51:57;;;;;;;115.95;54.05;;;5.30;99.90;;;;;;5071719;28;20097;-70
2022/12/01 03:54:38;;;;;;;117.22;54.30;;;5.30;99.90;;;;;;5086783;28;20079;-71
2022/12/01 03:57:09;;;;;;;118.45;54.30;;;5.30;99.90;;;;;;5089395;28;20050;-71
2022/12/01 03:59:38;;;;;;;118.43;54.17;;;5.60;99.90;;;;;;5085799;28;20056;-70
2022/12/01 04:02:06;;;;;;;115.70;53.70;;;5.30;99.90;;;;;;5090392;28;20044;-70
2022/12/01 04:04:31;;;;;;;118.07;54.92;;;5.50;99.90;;;;;;5095585;28;20079;-70
2022/12/01 04:06:57;;;;;;;117.72;54.47;;;5.30;99.90;;;;;;5079658;28;20083;-71
2022/12/01 04:09:23;;;;;;;111.60;53.80;;;5.30;99.90;;;;;;5088911;28;20568;-71
2022/12/01 04:14:33;;;;;;;118.90;55.03;;;5.30;99.90;;;;;;5040534;28;20056;-71
2022/12/01 04:16:59;;;;;;;114.75;54.92;;;5.30;99.90;;;;;;5081800;28;20056;-71
2022/12/01 04:19:24;;;;;;;118.05;55.50;;;5.30;99.90;;;;;;5091801;28;20044;-70
2022/12/01 04:21:50;;;;;;;114.85;54.58;;;5.30;99.90;;;;;;5094400;28;20043;-71
2022/12/01 04:24:16;;;;;;;119.22;55.30;;;5.30;99.90;;;;;;5095065;28;20035;-71
2022/12/01 04:26:42;;;;;;;116.82;54.85;;;5.30;99.90;;;;;;5074601;28;20051;-70
2022/12/01 04:29:10;;;;;;;112.93;53.47;;;5.30;99.90;;;;;;5088918;28;20453;-71
2022/12/01 04:31:35;;;;;;;124.75;55.40;;;5.30;99.90;;;;;;5074924;28;20400;-71
2022/12/01 04:34:02;;;;;;;121.55;56.20;;;5.30;99.90;;;;;;5059978;28;20051;-70
2022/12/01 04:36:33;;;;;;;123.25;57.05;;;5.30;99.90;;;;;;5073647;28;20048;-71
2022/12/01 04:39:00;;;;;;;119.70;54.47;;;5.30;99.90;;;;;;5058399;28;20068;-71
2022/12/01 04:41:25;;;;;;;122.72;56.25;;;5.30;99.90;;;;;;5092461;28;20085;-71
2022/12/01 04:43:53;;;;;;;119.85;56.00;;;5.30;99.90;;;;;;5069812;28;20122;-71
2022/12/01 04:46:19;;;;;;;116.63;55.05;;;5.30;99.90;;;;;;5086206;28;20051;-71
2022/12/01 04:48:45;;;;;;;118.95;55.00;;;5.30;99.90;;;;;;5080671;28;20044;-71
2022/12/01 04:51:11;;;;;;;125.15;56.88;;;5.50;99.90;;;;;;5090232;28;20040;-71
2022/12/01 04:53:37;;;;;;;117.70;55.75;;;5.30;99.90;;;;;;5064734;28;21320;-71
2022/12/01 04:56:03;;;;;;;126.10;57.47;;;5.30;99.90;;;;;;5078509;28;20051;-71
2022/12/01 04:58:30;;;;;;;123.63;56.60;;;5.30;99.90;;;;;;5078149;28;20059;-71
2022/12/01 05:01:05;;;;;;;112.30;54.45;;;5.30;99.90;;;;;;5083428;28;20044;-71
2022/12/01 05:03:30;;;;;;;125.07;56.03;;;5.30;99.90;;;;;;5098575;28;20048;-71
2022/12/01 05:06:12;;;;;;;117.18;54.72;;;5.50;99.90;;;;;;5062690;28;20105;-71
2022/12/01 05:08:37;;;;;;;119.43;55.70;;;5.30;99.90;;;;;;5092106;28;20042;-71
2022/12/01 05:11:05;;;;;;;117.07;56.13;;;5.30;99.90;;;;;;5093214;28;20044;-71
2022/12/01 05:13:31;;;;;;;117.45;54.97;;;5.30;99.90;;;;;;5069299;28;20479;-71
2022/12/01 05:16:08;;;;;;;126.82;56.40;;;6.00;99.90;;;;;;5074702;28;20143;-71
2022/12/01 05:18:34;;;;;;;126.40;58.15;;;5.30;99.90;;;;;;5087514;28;20048;-71
2022/12/01 05:21:02;;;;;;;121.30;55.20;;;5.40;99.90;;;;;;5094589;28;20085;-71
2022/12/01 05:23:30;;;;;;;115.43;56.67;;;5.30;99.90;;;;;;5091231;27;20439;-71
2022/12/01 05:25:56;;;;;;;114.72;55.35;;;5.60;99.90;;;;;;5083840;28;20055;-71
2022/12/01 05:28:23;;;;;;;117.85;54.85;;;5.30;99.90;;;;;;5077985;28;20052;-71
2022/12/01 05:30:50;;;;;;;121.50;55.90;;;5.30;99.90;;;;;;5074542;28;20052;-71
2022/12/01 05:33:16;;;;;;;123.68;55.85;;;5.30;99.90;;;;;;5101109;28;20055;-71
2022/12/01 05:35:41;;;;;;;120.10;55.78;;;5.30;99.90;;;;;;5096857;28;20376;-71
2022/12/01 05:38:07;;;;;;;128.25;58.42;;;5.20;99.90;;;;;;5062250;28;20047;-70
2022/12/01 05:40:33;;;;;;;126.30;56.88;;;5.20;99.90;;;;;;5083945;28;20048;-71
2022/12/01 05:42:59;;;;;;;123.78;56.47;;;5.20;99.90;;;;;;5078379;28;20077;-71
2022/12/01 05:45:25;;;;;;;144.10;72.50;;;5.30;99.90;;;;;;5059714;28;20123;-72
2022/12/01 05:47:55;;;;;;;191.88;106.10;;;5.20;99.90;;;;;;5101519;28;20070;-71
2022/12/01 05:50:22;;;;;;;175.25;81.85;;;5.20;99.90;;;;;;5059976;28;20036;-71
2022/12/01 05:52:48;;;;;;;178.07;86.25;;;5.20;99.90;;;;;;5079500;28;20475;-71
2022/12/01 05:55:13;;;;;;;214.05;95.28;;;5.30;99.90;;;;;;5071954;28;20055;-71
2022/12/01 05:57:39;;;;;;;194.70;103.25;;;5.20;99.90;;;;;;5087407;28;20097;-71
2022/12/01 06:00:05;;;;;;;407.70;235.95;;;5.20;99.90;;;;;;5081193;28;20048;-71
2022/12/01 06:02:31;;;;;;;262.58;131.85;;;5.20;99.90;;;;;;5077501;28;20480;-71
2022/12/01 06:04:57;;;;;;;322.30;176.05;;;5.20;99.90;;;;;;5072836;28;20100;-71
2022/12/01 06:07:24;;;;;;;475.15;294.60;;;5.40;99.90;;;;;;5093020;28;20075;-71
2022/12/01 06:09:50;;;;;;;167.73;88.90;;;5.20;99.90;;;;;;5079713;28;20036;-71
2022/12/01 06:12:16;;;;;;;144.43;69.88;;;5.20;99.90;;;;;;5078780;28;20096;-71
2022/12/01 06:14:41;;;;;;;134.95;65.75;;;5.20;99.90;;;;;;5095593;28;20040;-71
2022/12/01 06:17:07;;;;;;;124.28;60.22;;;5.20;99.90;;;;;;5083406;28;20052;-71
2022/12/01 06:19:33;;;;;;;138.23;64.32;;;5.20;99.90;;;;;;5073195;28;20040;-71
2022/12/01 06:21:59;;;;;;;120.97;58.92;;;5.20;99.90;;;;;;5069795;28;20138;-71
2022/12/01 06:24:24;;;;;;;127.38;62.42;;;5.20;99.90;;;;;;5101867;28;20044;-71
2022/12/01 06:26:50;;;;;;;133.73;64.10;;;5.20;99.90;;;;;;5086352;28;20050;-71
2022/12/01 06:29:15;;;;;;;129.48;63.40;;;5.20;99.90;;;;;;5063597;28;20110;-71
2022/12/01 06:31:41;;;;;;;145.82;84.68;;;5.20;99.90;;;;;;5084906;28;20082;-71
2022/12/01 06:34:07;;;;;;;129.60;65.75;;;5.50;99.90;;;;;;5085662;28;20119;-71
2022/12/01 06:36:33;;;;;;;128.50;63.35;;;5.20;99.90;;;;;;5091199;28;20251;-71
2022/12/01 06:38:58;;;;;;;127.35;58.38;;;5.20;99.90;;;;;;5081730;28;20083;-71
2022/12/01 06:41:24;;;;;;;138.13;63.97;;;5.20;99.90;;;;;;5073344;28;20441;-71
2022/12/01 06:43:50;;;;;;;125.90;60.08;;;5.20;99.90;;;;;;5081571;28;20070;-71
2022/12/01 06:46:16;;;;;;;120.07;56.85;;;5.30;99.90;;;;;;5091427;28;20070;-71
2022/12/01 06:48:41;;;;;;;123.30;56.78;;;5.30;99.90;;;;;;5088587;28;20046;-71
2022/12/01 06:51:07;;;;;;;129.25;57.17;;;5.30;99.90;;;;;;5069312;28;20050;-71
2022/12/01 06:53:32;;;;;;;132.13;57.65;;;5.30;99.90;;;;;;5083408;28;20160;-71
2022/12/01 06:56:03;;;;;;;128.48;56.95;;;5.30;99.90;;;;;;5078997;28;20055;-71
2022/12/01 06:58:29;;;;;;;127.05;56.03;;;5.30;99.90;;;;;;5059233;28;20127;-71
2022/12/01 07:00:56;;;;;;;125.63;55.95;;;5.30;99.90;;;;;;5084017;28;20130;-71
2022/12/01 07:03:21;;;;;;;121.55;54.70;;;5.30;99.90;;;;;;5078719;28;20051;-71
2022/12/01 07:05:58;;;;;;;130.18;56.47;;;5.30;99.90;;;;;;5074740;28;20051;-71
2022/12/01 07:08:25;;;;;;;123.22;54.78;;;5.30;99.90;;;;;;5089240;28;20047;-72
2022/12/01 07:11:00;;;;;;;125.13;55.53;;;5.30;99.90;;;;;;5075507;28;20047;-71
2022/12/01 07:13:26;;;;;;;121.78;53.97;;;5.30;99.90;;;;;;5075839;28;20044;-71
2022/12/01 07:15:52;;;;;;;126.90;56.28;;;5.30;99.90;;;;;;5075373;28;20123;-71
2022/12/01 07:18:18;;;;;;;118.47;55.22;;;6.20;99.90;;;;;;5078085;28;20071;-71
2022/12/01 07:20:43;;;;;;;126.30;56.83;;;5.90;99.90;;;;;;5057550;28;20480;-71
2022/12/01 07:23:09;;;;;;;130.65;55.72;;;5.30;99.90;;;;;;5075635;28;20050;-71
2022/12/01 07:25:35;;;;;;;125.93;56.10;;;5.30;99.90;;;;;;5088246;28;20430;-71
2022/12/01 07:28:00;;;;;;;133.45;55.85;;;5.30;99.90;;;;;;5079163;28;20039;-71
2022/12/01 07:30:26;;;;;;;125.28;54.95;;;5.30;99.90;;;;;;5076627;28;20067;-70
2022/12/01 07:32:52;;;;;;;132.77;56.70;;;5.50;99.90;;;;;;5077941;28;20040;-71
2022/12/01 07:35:17;;;;;;;124.25;55.58;;;5.70;99.90;;;;;;5066918;28;20432;-71
2022/12/01 07:37:43;;;;;;;123.43;54.08;;;5.30;99.90;;;;;;5079853;28;20090;-71
2022/12/01 07:40:09;;;;;;;126.43;55.15;;;5.30;99.90;;;;;;5081696;28;20087;-71
2022/12/01 07:42:35;;;;;;;121.15;53.70;;;5.30;99.90;;;;;;5082452;28;20052;-71
2022/12/01 07:45:01;;;;;;;117.15;53.80;;;5.30;99.90;;;;;;5091152;28;20055;-71
2022/12/01 07:47:26;;;;;;;127.65;56.60;;;5.40;99.90;;;;;;5064901;28;20518;-71
2022/12/01 07:49:52;;;;;;;111.97;53.17;;;5.30;99.90;;;;;;5060255;28;20036;-72
2022/12/01 07:52:18;;;;;;;124.10;53.70;;;5.40;99.90;;;;;;5042964;28;20137;-71
2022/12/01 07:54:43;;;;;;;119.38;52.95;;;5.40;99.90;;;;;;5076599;28;20046;-71
2022/12/01 07:57:13;;;;;;;120.30;54.40;;;5.50;99.90;;;;;;5079301;28;20047;-71
2022/12/01 07:59:38;;;;;;;158.60;78.13;;;5.40;99.90;;;;;;5088678;28;20507;-71
2022/12/01 08:02:04;;;;;;;158.40;79.55;;;5.40;99.90;;;;;;5091419;27;20130;-71
2022/12/01 08:04:30;;;;;;;162.93;86.47;;;5.40;99.90;;;;;;5093746;28;20463;-71
2022/12/01 08:06:56;;;;;;;133.13;61.53;;;5.40;99.90;;;;;;5082719;28;20105;-72
2022/12/01 08:09:22;;;;;;;196.05;110.13;;;5.40;99.90;;;;;;5105575;28;20040;-72
2022/12/01 08:11:48;;;;;;;153.98;75.95;;;5.40;99.90;;;;;;5085963;28;20052;-71
2022/12/01 08:14:14;;;;;;;162.70;87.15;;;5.40;99.90;;;;;;5086936;27;20039;-72
2022/12/01 08:16:39;;;;;;;175.20;92.03;;;5.40;99.90;;;;;;5099737;27;20054;-72
2022/12/01 08:19:08;;;;;;;147.30;72.78;;;5.40;99.90;;;;;;5079937;27;20407;-71
2022/12/01 08:21:36;;;;;;;162.50;82.25;;;5.40;99.90;;;;;;5089912;27;20083;-71
2022/12/01 08:24:02;;;;;;;188.60;99.82;;;5.40;99.90;;;;;;5119990;27;20479;-72
2022/12/01 08:26:28;;;;;;;147.80;69.28;;;5.50;99.90;;;;;;5092470;27;20339;-71
2022/12/01 08:28:55;;;;;;;203.77;102.82;;;5.50;99.90;;;;;;5092617;27;20097;-72
2022/12/01 08:31:24;;;;;;;177.65;87.03;;;5.90;99.90;;;;;;5103541;27;20700;-71
2022/12/01 08:33:50;;;;;;;142.13;68.90;;;5.50;99.90;;;;;;5084880;27;20060;-71
2022/12/01 08:36:16;;;;;;;120.90;56.28;;;5.50;99.90;;;;;;5102489;28;20055;-71
2022/12/01 08:38:48;;;;;;;143.02;76.45;;;5.50;99.90;;;;;;5102553;27;20050;-71
2022/12/01 08:41:14;;;;;;;162.80;95.93;;;5.50;99.90;;;;;;5101394;27;20071;-72
2022/12/01 08:43:43;;;;;;;152.10;89.53;;;5.60;99.90;;;;;;5104890;27;20775;-71
2022/12/01 08:46:12;;;;;;;132.98;67.32;;;5.60;99.90;;;;;;5062994;27;20062;-71
2022/12/01 08:48:39;;;;;;;131.80;58.58;;;5.60;99.90;;;;;;5099245;28;20465;-71
2022/12/01 08:51:08;;;;;;;136.25;58.95;;;6.30;99.90;;;;;;5085635;27;20053;-71
2022/12/01 08:53:36;;;;;;;123.63;55.30;;;5.60;99.90;;;;;;5099555;27;20055;-71
2022/12/01 08:56:09;;;;;;;128.30;57.35;;;5.60;99.90;;;;;;5087485;27;20054;-71
2022/12/01 08:58:35;;;;;;;116.63;53.95;;;5.60;99.90;;;;;;5075798;27;20043;-71
2022/12/01 09:01:03;;;;;;;115.35;53.58;;;5.60;99.90;;;;;;5101289;27;20055;-71
2022/12/01 09:03:30;;;;;;;119.60;53.72;;;5.70;99.90;;;;;;5103678;27;20078;-71
2022/12/01 09:06:01;;;;;;;121.95;53.42;;;5.70;99.90;;;;;;5102849;27;20039;-71
2022/12/01 09:08:33;;;;;;;121.97;53.55;;;5.70;99.90;;;;;;5114246;27;20101;-72
2022/12/01 09:11:02;;;;;;;120.20;53.53;;;5.70;99.90;;;;;;5080658;27;20039;-72
2022/12/01 09:13:28;;;;;;;118.68;52.92;;;5.70;99.90;;;;;;5090396;27;20054;-72
2022/12/01 09:15:59;;;;;;;115.47;53.50;;;5.90;99.90;;;;;;5085346;27;20093;-72
2022/12/01 09:18:25;;;;;;;114.10;50.75;;;5.70;99.90;;;;;;5096638;28;20491;-71
2022/12/01 09:20:51;;;;;;;117.88;52.13;;;5.80;99.90;;;;;;5079786;27;20094;-71
2022/12/01 09:23:17;;;;;;;107.05;49.47;;;5.80;99.90;;;;;;5083810;27;20082;-71
2022/12/01 09:25:42;;;;;;;107.32;49.17;;;5.80;99.90;;;;;;5098599;27;20092;-71
2022/12/01 09:28:08;;;;;;;102.90;49.90;;;5.80;99.90;;;;;;5087991;28;20036;-71
2022/12/01 09:30:34;;;;;;;109.22;51.10;;;5.80;99.90;;;;;;5072490;27;20036;-71
2022/12/01 09:33:00;;;;;;;116.03;51.00;;;5.80;99.90;;;;;;5069722;27;20044;-71
2022/12/01 09:35:26;;;;;;;109.88;51.08;;;5.80;99.90;;;;;;5082861;27;20048;-71
2022/12/01 09:37:52;;;;;;;100.88;48.78;;;5.80;99.90;;;;;;5078052;27;20054;-71
2022/12/01 09:40:18;;;;;;;99.72;47.03;;;6.00;99.90;;;;;;5078980;27;20308;-71
2022/12/01 09:42:46;;;;;;;102.25;48.40;;;5.80;99.90;;;;;;5089102;27;20149;-71
2022/12/01 09:45:30;;;;;;;98.57;48.00;;;5.80;99.90;;;;;;5089485;28;20128;-71
2022/12/01 09:47:59;;;;;;;102.60;48.90;;;5.90;99.90;;;;;;5083714;27;20051;-71
2022/12/01 09:50:28;;;;;;;96.53;47.72;;;5.90;99.90;;;;;;5095602;27;20520;-71
2022/12/01 09:53:06;;;;;;;101.13;47.97;;;5.90;99.90;;;;;;5087087;27;20055;-71
2022/12/01 09:55:33;;;;;;;103.43;50.25;;;6.00;99.90;;;;;;5076126;27;20130;-72
2022/12/01 09:58:01;;;;;;;94.00;45.72;;;6.00;99.90;;;;;;5097208;27;20062;-71
2022/12/01 10:00:34;;;;;;;97.03;47.63;;;6.00;99.90;;;;;;5081811;27;20054;-71
2022/12/01 10:03:39;;;;;;;101.55;50.42;;;6.00;99.90;;;;;;5099941;27;20032;-71
2022/12/01 10:06:10;;;;;;;88.97;44.95;;;6.00;99.90;;;;;;5085611;28;20127;-71
2022/12/01 10:08:41;;;;;;;87.15;44.50;;;6.00;99.90;;;;;;5084096;27;20054;-72
2022/12/01 10:11:28;;;;;;;87.47;45.38;;;6.00;99.90;;;;;;5093142;27;20453;-72
2022/12/01 10:13:54;;;;;;;95.28;47.28;;;6.00;99.90;;;;;;5091618;27;20031;-71
2022/12/01 10:16:27;;;;;;;95.00;46.72;;;6.00;99.90;;;;;;5095457;27;20093;-71
2022/12/01 10:19:16;;;;;;;94.38;49.60;;;6.10;99.90;;;;;;5103172;27;20051;-71
2022/12/01 10:21:59;;;;;;;99.82;49.20;;;6.00;99.90;;;;;;5080320;27;20134;-71
2022/12/01 10:24:34;;;;;;;89.70;46.78;;;6.10;99.90;;;;;;5101018;27;20432;-71
2022/12/01 10:27:48;;;;;;;89.45;45.70;;;6.10;99.90;;;;;;5096020;27;20102;-71
2022/12/01 10:30:17;;;;;;;81.38;44.25;;;6.10;99.90;;;;;;5084733;27;20062;-71
2022/12/01 10:33:23;;;;;;;89.93;45.55;;;6.00;99.90;;;;;;5087520;27;20515;-71
2022/12/01 10:35:49;;;;;;;83.95;43.33;;;6.10;99.90;;;;;;5085533;27;20135;-71
2022/12/01 10:38:31;;;;;;;87.60;46.67;;;6.10;99.90;;;;;;5077904;27;20051;-71
2022/12/01 10:41:00;;;;;;;86.68;45.10;;;6.10;99.90;;;;;;5078624;27;20488;-71
2022/12/01 10:43:37;;;;;;;82.85;44.47;;;6.10;99.90;;;;;;5100201;27;20047;-71
2022/12/01 10:46:20;;;;;;;84.32;44.65;;;6.10;99.90;;;;;;5102295;27;20043;-71
2022/12/01 10:49:05;;;;;;;80.45;44.72;;;6.10;99.90;;;;;;5098903;28;20495;-71
2022/12/01 10:51:46;;;;;;;82.72;44.72;;;6.20;99.90;;;;;;5103016;27;20135;-71
2022/12/01 10:54:12;;;;;;;80.55;43.65;;;6.20;99.90;;;;;;5095498;27;20130;-71
2022/12/01 10:56:44;;;;;;;81.70;42.65;;;6.20;99.90;;;;;;5097570;27;20457;-71
2022/12/01 10:59:24;;;;;;;77.90;42.20;;;6.20;99.90;;;;;;5085269;28;20131;-71
2022/12/01 11:01:49;;;;;;;78.95;42.25;;;6.20;99.90;;;;;;5079216;27;20054;-71
2022/12/01 11:04:33;;;;;;;74.53;43.55;;;6.20;99.90;;;;;;5088740;27;20043;-72
2022/12/01 11:07:00;;;;;;;71.63;40.17;;;6.20;99.90;;;;;;5091721;27;20052;-71
2022/12/01 11:09:28;;;;;;;71.10;38.05;;;6.20;99.90;;;;;;5096456;27;20092;-72
2022/12/01 11:12:02;;;;;;;69.72;39.45;;;6.40;99.90;;;;;;5099788;28;20495;-72
2022/12/01 11:14:39;;;;;;;73.50;40.13;;;6.20;99.90;;;;;;5096134;27;20055;-71
2022/12/01 11:17:40;;;;;;;70.78;39.55;;;6.30;99.90;;;;;;5095250;27;20479;-72
2022/12/01 11:20:28;;;;;;;68.78;37.85;;;6.30;99.90;;;;;;5076513;27;20055;-71
2022/12/01 11:23:23;;;;;;;69.05;38.92;;;6.30;99.90;;;;;;5076256;28;20040;-72
2022/12/01 11:26:03;;;;;;;69.18;39.92;;;6.30;99.90;;;;;;5095185;27;20048;-71
2022/12/01 11:28:31;;;;;;;73.65;41.97;;;6.30;99.90;;;;;;5099735;27;20099;-71
2022/12/01 11:31:01;;;;;;;74.32;41.65;;;6.30;99.90;;;;;;5077618;27;20394;-72
2022/12/01 11:33:29;;;;;;;68.55;38.80;;;6.30;99.90;;;;;;5087055;27;20494;-71
2022/12/01 11:35:55;;;;;;;75.25;43.45;;;6.30;99.90;;;;;;5073838;27;20043;-72
2022/12/01 11:38:28;;;;;;;71.53;43.35;;;6.30;99.90;;;;;;5073799;28;20165;-71
2022/12/01 11:40:56;;;;;;;76.57;48.65;;;6.30;99.90;;;;;;5092104;28;20052;-71
2022/12/01 11:43:32;;;;;;;68.15;39.72;;;6.30;99.90;;;;;;5091963;27;20062;-72
2022/12/01 11:46:01;;;;;;;71.15;40.92;;;6.40;99.90;;;;;;5109150;27;20070;-71
2022/12/01 11:48:34;;;;;;;66.28;36.40;;;6.30;99.90;;;;;;5068637;28;20079;-72
2022/12/01 11:51:10;;;;;;;65.95;38.85;;;6.40;99.90;;;;;;5080008;28;20039;-71
2022/12/01 11:53:39;;;;;;;69.15;39.50;;;6.30;99.90;;;;;;5101248;27;20054;-72
2022/12/01 11:56:22;;;;;;;67.60;39.22;;;6.30;99.90;;;;;;5103587;28;20543;-71
2022/12/01 11:58:53;;;;;;;65.68;38.15;;;6.30;99.90;;;;;;5096922;28;20039;-71
2022/12/01 12:01:44;;;;;;;71.25;39.78;;;6.40;99.90;;;;;;5081331;28;20083;-71
2022/12/01 12:04:28;;;;;;;64.07;37.38;;;6.40;99.90;;;;;;5098922;28;20055;-72
2022/12/01 12:07:09;;;;;;;65.35;39.13;;;6.40;99.90;;;;;;4985904;28;20053;-71
2022/12/01 12:09:38;;;;;;;62.50;36.58;;;7.30;99.90;;;;;;5055638;28;20048;-72
2022/12/01 12:12:36;;;;;;;58.53;35.92;;;6.50;99.90;;;;;;5068313;28;20051;-72
2022/12/01 12:15:32;;;;;;;60.58;35.60;;;6.50;99.90;;;;;;5032330;28;20055;-71
2022/12/01 12:18:04;;;;;;;62.45;36.33;;;6.40;99.90;;;;;;5070312;28;20059;-71
2022/12/01 12:20:53;;;;;;;65.97;38.47;;;6.40;99.90;;;;;;5071321;28;20062;-71
2022/12/01 12:23:24;;;;;;;67.32;39.28;;;6.40;99.90;;;;;;5071449;28;20052;-71
2022/12/01 12:25:52;;;;;;;64.22;38.35;;;6.40;99.90;;;;;;5071207;28;20488;-71
2022/12/01 12:28:53;;;;;;;68.18;41.00;;;6.40;99.90;;;;;;5054301;28;20071;-71
2022/12/01 12:31:21;;;;;;;101.85;58.53;;;6.40;99.90;;;;;;5070349;28;20526;-71
2022/12/01 12:34:02;;;;;;;72.30;41.33;;;6.40;99.90;;;;;;5071808;28;20130;-71
2022/12/01 12:37:04;;;;;;;72.35;43.17;;;6.40;99.90;;;;;;5069966;28;20067;-71
2022/12/01 12:39:49;;;;;;;66.63;40.30;;;6.40;99.90;;;;;;5071227;28;20127;-71
2022/12/01 12:42:38;;;;;;;66.50;39.63;;;6.40;99.90;;;;;;5073015;28;20052;-71
2022/12/01 12:45:22;;;;;;;66.07;38.90;;;6.30;99.90;;;;;;5072347;28;20036;-71
2022/12/01 12:48:16;;;;;;;68.95;38.38;;;6.40;99.90;;;;;;5070820;28;20048;-71
2022/12/01 12:51:21;;;;;;;67.90;39.78;;;6.30;99.90;;;;;;5062491;28;20047;-71